Time;durP1;ratioP1;P1;durP2;ratioP2;P2;SDS_P1;SDS_P2;PMS_P1;PMS_P2;Temp;Humidity;BMP_temperature;BMP_pressure;BME280_temperature;BME280_humidity;BME280_pressure;Samples;Min_cycle;Max_cycle;Signal;HPM_P1;HPM_P2
2022/09/02 00:00:52;;;;;;;5.53;4.20;;;14.00;99.90;;;;;;5109984;27;20043;-74
2022/09/02 00:03:19;;;;;;;4.30;3.63;;;14.10;99.90;;;;;;5135027;27;20058;-75
2022/09/02 00:05:46;;;;;;;4.28;3.67;;;14.00;99.90;;;;;;5134699;27;20057;-74
2022/09/02 00:08:13;;;;;;;5.95;4.22;;;13.90;99.90;;;;;;5136082;27;20027;-76
2022/09/02 00:10:42;;;;;;;5.88;3.78;;;13.90;99.90;;;;;;5134650;27;20031;-75
2022/09/02 00:13:10;;;;;;;6.82;4.65;;;13.80;99.90;;;;;;5135854;27;20395;-75
2022/09/02 00:15:37;;;;;;;4.93;4.25;;;13.70;99.90;;;;;;5133733;27;20530;-75
2022/09/02 00:18:05;;;;;;;5.28;4.45;;;13.70;99.90;;;;;;5135752;27;20023;-74
2022/09/02 00:20:32;;;;;;;4.70;3.80;;;13.80;99.90;;;;;;5134360;27;20491;-75
2022/09/02 00:22:58;;;;;;;5.75;4.65;;;13.80;99.90;;;;;;5135478;27;20418;-73
2022/09/02 00:25:25;;;;;;;6.32;4.85;;;13.80;99.90;;;;;;5133371;27;20031;-74
2022/09/02 00:27:51;;;;;;;4.70;4.03;;;13.70;99.90;;;;;;5134235;27;20027;-73
2022/09/02 00:30:17;;;;;;;5.45;3.97;;;13.70;99.90;;;;;;5129044;27;20027;-77
2022/09/02 00:32:43;;;;;;;3.95;3.53;;;13.70;99.90;;;;;;5134510;27;20039;-73
2022/09/02 00:35:10;;;;;;;6.68;3.75;;;13.60;99.90;;;;;;5115471;27;20050;-74
2022/09/02 00:37:37;;;;;;;5.53;3.90;;;13.60;99.90;;;;;;5134379;27;20053;-73
2022/09/02 00:40:05;;;;;;;7.78;4.80;;;13.50;99.90;;;;;;5127688;27;20452;-74
2022/09/02 00:42:33;;;;;;;4.72;3.97;;;13.50;99.90;;;;;;5109019;27;20372;-73
2022/09/02 00:45:01;;;;;;;5.53;4.28;;;13.50;99.90;;;;;;5107936;27;20050;-74
2022/09/02 00:47:29;;;;;;;4.95;3.67;;;13.40;99.90;;;;;;5115446;27;20046;-74
2022/09/02 00:49:57;;;;;;;5.65;4.15;;;13.40;99.90;;;;;;5134747;27;20039;-73
2022/09/02 00:52:28;;;;;;;7.78;4.05;;;13.40;99.90;;;;;;5133607;27;20054;-74
2022/09/02 00:55:00;;;;;;;8.75;4.65;;;13.40;99.90;;;;;;5126817;27;20058;-74
2022/09/02 00:57:38;;;;;;;5.47;4.20;;;13.40;99.90;;;;;;5127620;27;20042;-75
2022/09/02 01:00:16;;;;;;;5.35;4.32;;;13.30;99.90;;;;;;5128976;27;20038;-74
2022/09/02 01:02:45;;;;;;;7.40;4.28;;;13.20;99.90;;;;;;5133883;27;20043;-73
2022/09/02 01:05:14;;;;;;;4.82;3.75;;;13.20;99.90;;;;;;5133427;27;20455;-73
2022/09/02 01:07:42;;;;;;;5.05;4.25;;;13.20;99.90;;;;;;5133103;27;20046;-73
2022/09/02 01:10:13;;;;;;;5.68;4.15;;;13.10;99.90;;;;;;5132786;27;20043;-73
2022/09/02 01:12:40;;;;;;;5.43;4.20;;;12.90;99.90;;;;;;5133770;27;20053;-73
2022/09/02 01:15:08;;;;;;;5.30;4.35;;;12.80;99.90;;;;;;5133145;27;20046;-73
2022/09/02 01:17:38;;;;;;;5.82;4.50;;;12.70;99.90;;;;;;5133552;27;20050;-73
2022/09/02 01:20:10;;;;;;;6.75;4.70;;;12.80;99.90;;;;;;5133940;27;20031;-73
2022/09/02 01:22:38;;;;;;;5.68;4.50;;;12.80;99.90;;;;;;5114283;27;20027;-74
2022/09/02 01:25:13;;;;;;;5.88;4.13;;;12.70;99.90;;;;;;5114009;27;20047;-73
2022/09/02 01:27:40;;;;;;;5.28;4.53;;;12.70;99.90;;;;;;5132733;27;20051;-73
2022/09/02 01:30:09;;;;;;;5.75;4.25;;;12.70;99.90;;;;;;5133677;27;20038;-74
2022/09/02 01:32:35;;;;;;;6.10;5.45;;;12.70;99.90;;;;;;5133099;27;20542;-74
2022/09/02 01:35:02;;;;;;;6.65;4.43;;;12.70;99.90;;;;;;5114050;27;20392;-74
2022/09/02 01:37:28;;;;;;;8.63;5.60;;;12.70;99.90;;;;;;5132703;27;20034;-74
2022/09/02 01:39:56;;;;;;;6.80;4.93;;;12.70;99.90;;;;;;5132233;27;20039;-75
2022/09/02 01:42:23;;;;;;;5.85;4.80;;;12.80;99.90;;;;;;5114344;27;20043;-74
2022/09/02 01:44:50;;;;;;;4.95;4.25;;;12.80;99.90;;;;;;5129078;27;20529;-74
2022/09/02 01:47:24;;;;;;;5.68;3.78;;;12.90;99.90;;;;;;5113284;27;20035;-75
2022/09/02 01:49:51;;;;;;;4.88;4.05;;;12.90;99.90;;;;;;5133765;27;20027;-74
2022/09/02 01:52:20;;;;;;;8.25;5.55;;;12.80;99.90;;;;;;5132279;27;20050;-77
2022/09/02 01:54:46;;;;;;;7.22;4.45;;;12.80;99.90;;;;;;5132424;27;20031;-74
2022/09/02 01:57:13;;;;;;;5.72;4.40;;;12.70;99.90;;;;;;5115329;27;20058;-74
2022/09/02 01:59:42;;;;;;;5.63;4.03;;;12.40;99.90;;;;;;5114341;27;20493;-74
2022/09/02 02:02:09;;;;;;;6.37;4.17;;;12.30;99.90;;;;;;5113505;27;20392;-74
2022/09/02 02:04:36;;;;;;;5.57;4.10;;;12.30;99.90;;;;;;5130766;27;20047;-74
2022/09/02 02:07:05;;;;;;;6.50;5.75;;;12.20;99.90;;;;;;5112107;27;20058;-74
2022/09/02 02:09:31;;;;;;;6.80;4.63;;;12.10;99.90;;;;;;5131677;27;20352;-74
2022/09/02 02:11:57;;;;;;;7.45;4.47;;;12.00;99.90;;;;;;5114272;27;20035;-76
2022/09/02 02:14:24;;;;;;;5.57;4.68;;;12.00;99.90;;;;;;5112920;27;20046;-74
2022/09/02 02:16:50;;;;;;;7.22;5.05;;;12.10;99.90;;;;;;5114773;27;20046;-74
2022/09/02 02:19:17;;;;;;;6.82;5.50;;;12.10;99.90;;;;;;5134893;27;20039;-75
2022/09/02 02:21:43;;;;;;;7.47;4.70;;;12.10;99.90;;;;;;5132756;27;20030;-74
2022/09/02 02:24:11;;;;;;;6.55;5.13;;;12.00;99.90;;;;;;5132629;27;20476;-74
2022/09/02 02:26:37;;;;;;;5.85;4.47;;;12.10;99.90;;;;;;5130823;27;20047;-74
2022/09/02 02:29:05;;;;;;;6.38;4.43;;;12.00;99.90;;;;;;5114238;27;20039;-74
2022/09/02 02:31:31;;;;;;;5.90;4.50;;;11.90;99.90;;;;;;5131791;27;20035;-74
2022/09/02 02:33:58;;;;;;;6.45;4.07;;;11.80;99.90;;;;;;5113755;27;20395;-74
2022/09/02 02:36:25;;;;;;;6.07;4.65;;;11.80;99.90;;;;;;5130359;27;20046;-74
2022/09/02 02:38:51;;;;;;;8.65;4.68;;;11.70;99.90;;;;;;5113785;27;20042;-73
2022/09/02 02:41:17;;;;;;;4.88;4.38;;;11.80;99.90;;;;;;5132185;27;20034;-74
2022/09/02 02:43:44;;;;;;;5.03;4.05;;;11.80;99.90;;;;;;5112572;27;20414;-73
2022/09/02 02:46:11;;;;;;;5.07;4.25;;;11.70;99.90;;;;;;5095707;27;20043;-74
2022/09/02 02:48:38;;;;;;;6.28;4.50;;;11.60;99.90;;;;;;5113263;27;20407;-74
2022/09/02 02:51:06;;;;;;;5.32;4.32;;;11.60;99.90;;;;;;5113228;27;20463;-74
2022/09/02 02:53:35;;;;;;;5.30;4.07;;;11.60;99.90;;;;;;5113246;28;20892;-74
2022/09/02 02:56:03;;;;;;;4.93;4.28;;;11.50;99.90;;;;;;5112257;27;20043;-72
2022/09/02 02:58:31;;;;;;;4.63;4.05;;;11.50;99.90;;;;;;5112652;28;20395;-73
2022/09/02 03:00:59;;;;;;;8.13;4.82;;;11.60;99.90;;;;;;5113030;27;20035;-73
2022/09/02 03:03:26;;;;;;;7.70;4.30;;;11.60;99.90;;;;;;5112540;28;20095;-74
2022/09/02 03:05:55;;;;;;;4.38;3.83;;;11.60;99.90;;;;;;5112285;28;20051;-73
2022/09/02 03:08:24;;;;;;;4.93;4.38;;;11.60;99.90;;;;;;5113065;28;20043;-76
2022/09/02 03:10:54;;;;;;;6.75;4.78;;;11.50;99.90;;;;;;5112870;28;20468;-73
2022/09/02 03:13:23;;;;;;;;;;;11.60;99.90;;;;;;5097016;28;20043;-76
2022/09/02 03:15:50;;;;;;;5.50;3.88;;;11.50;99.90;;;;;;5112502;28;20276;-73
2022/09/02 03:18:16;;;;;;;5.95;4.57;;;11.60;99.90;;;;;;5112961;28;20043;-73
2022/09/02 03:20:43;;;;;;;6.45;4.45;;;11.70;99.90;;;;;;5112151;28;20570;-73
2022/09/02 03:23:12;;;;;;;4.25;3.33;;;11.80;99.90;;;;;;5113428;28;20031;-73
2022/09/02 03:25:41;;;;;;;6.55;4.45;;;11.80;99.90;;;;;;5111411;28;20047;-73
2022/09/02 03:28:16;;;;;;;4.53;3.70;;;11.70;99.90;;;;;;5113235;28;20403;-73
2022/09/02 03:30:45;;;;;;;4.45;3.47;;;11.80;99.90;;;;;;5112525;28;20118;-73
2022/09/02 03:33:11;;;;;;;5.90;4.00;;;11.70;99.90;;;;;;5113138;28;20046;-73
2022/09/02 03:35:43;;;;;;;5.50;3.85;;;11.50;99.90;;;;;;5095099;28;20054;-73
2022/09/02 03:38:11;;;;;;;5.68;4.15;;;11.40;99.90;;;;;;5113414;28;20046;-73
2022/09/02 03:40:38;;;;;;;5.22;3.95;;;11.40;99.90;;;;;;5111832;28;20036;-73
2022/09/02 03:43:05;;;;;;;5.40;4.15;;;11.40;99.90;;;;;;5113265;28;20048;-73
2022/09/02 03:45:31;;;;;;;5.28;3.85;;;11.50;99.90;;;;;;5111159;28;20046;-73
2022/09/02 03:48:03;;;;;;;5.68;4.18;;;11.60;99.90;;;;;;5132153;28;20035;-73
2022/09/02 03:50:36;;;;;;;5.45;4.05;;;11.60;99.90;;;;;;5112377;28;20050;-73
2022/09/02 03:53:03;;;;;;;5.38;4.05;;;11.60;99.90;;;;;;5132153;28;20038;-74
2022/09/02 03:55:30;;;;;;;4.30;3.90;;;11.60;99.90;;;;;;5111225;28;20039;-74
2022/09/02 03:57:56;;;;;;;4.78;3.72;;;11.70;99.90;;;;;;5112389;28;20415;-74
2022/09/02 04:00:30;;;;;;;6.40;4.25;;;11.60;99.90;;;;;;5108488;28;20050;-78
2022/09/02 04:03:00;;;;;;;4.57;3.95;;;11.60;99.90;;;;;;5128019;28;20051;-74
2022/09/02 04:05:28;;;;;;;4.53;3.60;;;11.60;99.90;;;;;;5110862;28;20104;-73
2022/09/02 04:07:56;;;;;;;4.38;3.90;;;11.40;99.90;;;;;;5112859;28;20476;-73
2022/09/02 04:10:23;;;;;;;6.95;4.03;;;11.20;99.90;;;;;;5112811;27;20043;-76
2022/09/02 04:12:50;;;;;;;7.05;3.92;;;11.00;99.90;;;;;;5131431;27;20031;-73
2022/09/02 04:15:18;;;;;;;5.32;4.10;;;11.00;99.90;;;;;;5113340;27;20035;-73
2022/09/02 04:21:26;;;;;;;4.43;3.58;;;11.10;99.90;;;;;;5141638;27;20038;-76
2022/09/02 04:23:52;;;;;;;5.03;3.55;;;11.00;99.90;;;;;;5116051;27;20039;-74
2022/09/02 04:26:21;;;;;;;4.82;3.60;;;11.00;99.90;;;;;;5114994;27;20043;-74
2022/09/02 04:28:52;;;;;;;;;;;10.80;99.90;;;;;;5099773;27;20091;-74
2022/09/02 04:31:21;;;;;;;7.95;3.65;;;10.70;99.90;;;;;;5115997;27;19907;-73
2022/09/02 04:33:51;;;;;;;4.43;3.80;;;10.70;99.90;;;;;;5115014;27;20046;-74
2022/09/02 04:36:18;;;;;;;4.78;3.75;;;10.70;99.90;;;;;;5133353;27;20039;-74
2022/09/02 04:38:45;;;;;;;5.72;4.13;;;10.70;99.90;;;;;;5115685;27;20127;-74
2022/09/02 04:41:16;;;;;;;4.88;4.20;;;10.90;99.90;;;;;;5115367;27;20475;-73
2022/09/02 04:43:44;;;;;;;4.82;3.75;;;11.00;99.90;;;;;;5115202;27;20035;-73
2022/09/02 04:46:14;;;;;;;4.85;3.63;;;10.90;99.90;;;;;;5114731;27;20039;-73
2022/09/02 04:48:43;;;;;;;6.82;4.00;;;11.00;99.90;;;;;;5114947;27;20050;-73
2022/09/02 04:51:21;;;;;;;6.07;4.80;;;11.00;99.90;;;;;;5115534;27;20035;-73
2022/09/02 04:53:51;;;;;;;5.32;4.22;;;11.00;99.90;;;;;;5114893;27;20371;-75
2022/09/02 04:56:24;;;;;;;5.68;4.28;;;11.00;99.90;;;;;;5133210;27;20043;-73
2022/09/02 04:58:52;;;;;;;6.53;4.55;;;11.00;99.90;;;;;;5116083;27;20039;-73
2022/09/02 05:01:24;;;;;;;6.78;4.60;;;11.00;99.90;;;;;;5115156;27;20106;-73
2022/09/02 05:03:52;;;;;;;6.97;4.40;;;11.00;99.90;;;;;;5114130;27;20047;-74
2022/09/02 05:06:25;;;;;;;5.10;4.22;;;11.10;99.90;;;;;;5114325;27;20046;-73
2022/09/02 05:08:56;;;;;;;7.47;4.30;;;11.10;99.90;;;;;;5115306;27;20490;-73
2022/09/02 05:11:29;;;;;;;5.65;4.22;;;11.10;99.90;;;;;;5116084;27;20039;-73
2022/09/02 05:13:59;;;;;;;4.38;3.72;;;11.00;99.90;;;;;;5115210;27;20038;-73
2022/09/02 05:16:31;;;;;;;6.03;4.32;;;11.00;99.90;;;;;;5115115;27;20047;-77
2022/09/02 05:18:59;;;;;;;;;;;11.00;99.90;;;;;;5116656;27;20043;-72
2022/09/02 05:21:32;;;;;;;6.03;3.97;;;11.10;99.90;;;;;;5115054;27;19907;-74
2022/09/02 05:23:59;;;;;;;4.53;3.90;;;11.10;99.90;;;;;;5116041;27;20054;-74
2022/09/02 05:26:26;;;;;;;6.13;4.28;;;11.20;99.90;;;;;;5115765;27;20403;-77
2022/09/02 05:28:52;;;;;;;4.45;3.58;;;11.30;99.90;;;;;;5114926;27;20043;-74
2022/09/02 05:31:20;;;;;;;5.53;3.80;;;11.60;99.90;;;;;;5109914;27;20390;-74
2022/09/02 05:33:48;;;;;;;3.35;3.05;;;12.00;99.90;;;;;;5114135;27;20050;-76
2022/09/02 05:36:20;;;;;;;3.95;3.03;;;12.40;99.90;;;;;;5115674;27;20058;-74
2022/09/02 05:38:48;;;;;;;3.67;2.63;;;13.00;99.90;;;;;;5114694;27;20031;-74
2022/09/02 05:41:18;;;;;;;4.95;3.00;;;13.80;99.90;;;;;;5115459;27;20392;-74
2022/09/02 05:43:47;;;;;;;3.75;2.80;;;14.40;99.90;;;;;;5114436;27;20444;-74
2022/09/02 05:46:16;;;;;;;3.35;2.35;;;14.90;99.90;;;;;;5113543;27;20361;-74
2022/09/02 05:51:32;;;;;;;2.95;1.98;;;16.90;99.90;;;;;;5109040;27;20478;-77
2022/09/02 05:54:00;;;;;;;4.13;2.15;;;17.50;99.70;;;;;;5114411;27;20425;-74
2022/09/02 05:56:26;;;;;;;3.17;2.22;;;17.80;98.50;;;;;;5113558;27;20039;-75
2022/09/02 05:58:57;;;;;;;3.97;2.50;;;18.00;96.80;;;;;;5114433;27;20399;-74
2022/09/02 06:01:25;;;;;;;5.32;2.47;;;18.00;96.80;;;;;;5115065;27;20050;-76
2022/09/02 06:03:51;;;;;;;3.78;2.17;;;18.00;97.90;;;;;;5132668;27;20388;-75
2022/09/02 06:06:21;;;;;;;3.03;1.90;;;18.20;96.10;;;;;;5114403;27;20069;-76
2022/09/02 06:08:49;;;;;;;4.57;2.60;;;17.90;96.30;;;;;;5106897;27;20047;-76
2022/09/02 06:11:17;;;;;;;2.40;1.73;;;17.90;97.50;;;;;;5103827;27;20032;-75
2022/09/02 06:13:44;;;;;;;2.78;2.47;;;18.80;96.20;;;;;;5108133;27;20476;-76
2022/09/02 06:16:13;;;;;;;4.50;2.13;;;19.20;93.80;;;;;;5104362;27;20039;-76
2022/09/02 06:18:42;;;;;;;2.10;1.67;;;19.00;94.20;;;;;;5102388;27;20066;-74
2022/09/02 06:21:09;;;;;;;4.13;1.85;;;19.80;93.10;;;;;;5114392;27;20054;-74
2022/09/02 06:23:42;;;;;;;3.08;2.17;;;20.40;91.20;;;;;;5121104;27;20036;-74
2022/09/02 06:26:11;;;;;;;2.30;1.92;;;20.00;90.70;;;;;;5112926;27;20514;-74
2022/09/02 06:28:39;;;;;;;2.95;1.63;;;20.20;92.20;;;;;;5113818;27;20054;-74
2022/09/02 06:31:15;;;;;;;3.08;1.88;;;20.80;90.50;;;;;;5114067;27;20035;-74
2022/09/02 06:33:43;;;;;;;3.63;1.55;;;20.50;87.50;;;;;;5112422;27;20533;-75
2022/09/02 06:36:13;;;;;;;2.67;1.55;;;20.50;87.50;;;;;;5113275;27;20475;-74
2022/09/02 06:38:42;;;;;;;1.58;1.13;;;20.60;90.10;;;;;;5125489;27;20031;-73
2022/09/02 06:41:12;;;;;;;4.40;1.98;;;21.20;82.80;;;;;;5101072;27;20046;-75
2022/09/02 06:43:41;;;;;;;2.47;1.55;;;21.40;84.40;;;;;;5114171;27;20039;-74
2022/09/02 06:46:17;;;;;;;2.03;1.35;;;22.50;73.40;;;;;;5113832;27;20050;-74
2022/09/02 06:48:48;;;;;;;2.30;1.63;;;23.10;72.30;;;;;;5113029;27;20054;-74
2022/09/02 06:51:21;;;;;;;2.17;1.00;;;23.00;67.30;;;;;;5112531;27;20376;-74
2022/09/02 06:53:49;;;;;;;1.40;0.90;;;22.90;65.70;;;;;;5112816;27;20050;-75
2022/09/02 06:56:17;;;;;;;2.03;1.15;;;23.30;65.40;;;;;;5113221;27;20070;-75
2022/09/02 06:58:45;;;;;;;1.75;0.90;;;22.80;63.70;;;;;;5127965;27;20039;-74
2022/09/02 07:01:20;;;;;;;1.00;0.70;;;22.70;62.30;;;;;;5102596;28;20036;-74
2022/09/02 07:06:38;;;;;;;1.88;0.85;;;22.90;60.40;;;;;;5101510;28;20039;-74
2022/09/02 07:09:08;;;;;;;2.60;0.95;;;23.40;60.00;;;;;;5100627;28;20400;-74
2022/09/02 07:11:35;;;;;;;1.85;1.08;;;23.40;61.00;;;;;;5101230;28;20472;-75
2022/09/02 07:14:03;;;;;;;1.25;0.68;;;23.70;58.60;;;;;;5109874;28;20056;-75
2022/09/02 07:16:33;;;;;;;2.38;0.75;;;23.80;57.80;;;;;;5097183;28;20039;-79
2022/09/02 07:19:00;;;;;;;2.30;1.00;;;24.20;59.10;;;;;;5096983;28;20032;-75
2022/09/02 07:21:28;;;;;;;1.02;0.60;;;24.30;58.10;;;;;;5103105;28;20046;-74
2022/09/02 07:23:57;;;;;;;1.08;0.73;;;24.40;57.10;;;;;;5102335;28;20475;-74
2022/09/02 07:26:24;;;;;;;2.20;0.90;;;24.60;55.20;;;;;;5101790;28;20038;-75
2022/09/02 07:28:52;;;;;;;1.40;0.70;;;24.60;53.40;;;;;;5104944;28;20031;-74
2022/09/02 07:31:20;;;;;;;2.58;0.75;;;24.30;53.60;;;;;;5101353;28;20043;-75
2022/09/02 07:33:46;;;;;;;1.70;0.68;;;24.10;55.20;;;;;;5100069;28;20054;-75
2022/09/02 07:36:14;;;;;;;0.68;0.60;;;24.20;54.90;;;;;;5107941;28;20496;-74
2022/09/02 07:38:41;;;;;;;1.27;0.77;;;23.40;53.60;;;;;;5100460;28;20032;-74
2022/09/02 07:41:09;;;;;;;3.83;1.27;;;22.50;55.10;;;;;;5105979;28;20473;-74
2022/09/02 07:43:36;;;;;;;1.52;0.70;;;22.30;55.80;;;;;;5108923;28;20480;-76
2022/09/02 07:46:04;;;;;;;2.00;0.80;;;22.10;56.20;;;;;;5111455;28;20400;-76
2022/09/02 07:48:34;;;;;;;2.42;0.80;;;22.00;56.20;;;;;;5114919;28;20032;-83
2022/09/02 07:51:01;;;;;;;5.68;0.70;;;21.80;56.40;;;;;;5111933;28;20043;-74
2022/09/02 07:53:30;;;;;;;2.85;0.95;;;22.00;58.00;;;;;;5110076;28;20047;-74
2022/09/02 07:55:59;;;;;;;1.85;0.88;;;22.70;57.10;;;;;;5101863;28;20062;-75
2022/09/02 07:58:25;;;;;;;1.27;0.60;;;22.90;55.10;;;;;;5097539;28;20496;-74
2022/09/02 08:00:52;;;;;;;2.50;0.80;;;23.00;56.50;;;;;;5100897;28;20042;-76
2022/09/02 08:03:18;;;;;;;1.75;0.93;;;23.20;53.90;;;;;;5101717;28;20043;-75
2022/09/02 08:05:52;;;;;;;1.67;0.90;;;22.60;56.10;;;;;;5103627;28;20476;-74
2022/09/02 08:08:19;;;;;;;2.35;0.70;;;22.50;55.90;;;;;;5108518;28;20059;-74
2022/09/02 08:10:50;;;;;;;2.30;0.75;;;22.50;56.10;;;;;;5104528;28;20491;-75
2022/09/02 08:13:17;;;;;;;2.22;0.77;;;23.10;55.70;;;;;;5105503;28;20048;-75
2022/09/02 08:15:44;;;;;;;1.63;0.82;;;23.70;55.30;;;;;;5105767;28;20054;-74
2022/09/02 08:18:11;;;;;;;1.35;0.80;;;24.40;54.90;;;;;;5106159;28;20028;-76
2022/09/02 08:20:37;;;;;;;1.50;0.80;;;24.30;54.00;;;;;;5103482;28;20028;-75
2022/09/02 08:23:05;;;;;;;1.60;1.15;;;24.40;54.20;;;;;;5102136;28;20383;-75
2022/09/02 08:25:35;;;;;;;1.88;0.50;;;24.50;54.40;;;;;;5104477;28;20031;-77
2022/09/02 08:28:01;;;;;;;1.05;0.57;;;24.50;53.90;;;;;;5104212;28;20030;-75
2022/09/02 08:30:28;;;;;;;2.00;1.30;;;24.50;53.20;;;;;;5103597;28;20032;-75
2022/09/02 08:32:55;;;;;;;1.35;0.60;;;24.70;52.60;;;;;;5097975;28;20051;-75
2022/09/02 08:35:21;;;;;;;5.18;0.60;;;25.10;51.90;;;;;;5104844;28;20024;-77
2022/09/02 08:37:47;;;;;;;1.55;0.90;;;24.60;50.40;;;;;;5102021;28;20031;-76
2022/09/02 08:40:20;;;;;;;1.98;0.80;;;23.90;52.00;;;;;;5101495;28;20028;-75
2022/09/02 08:42:50;;;;;;;2.63;0.95;;;24.10;52.40;;;;;;5106360;28;20019;-76
2022/09/02 08:45:30;;;;;;;1.75;1.05;;;24.60;52.00;;;;;;5104711;28;20028;-75
2022/09/02 08:48:12;;;;;;;2.17;0.70;;;24.80;52.40;;;;;;5103643;28;20040;-76
2022/09/02 08:50:43;;;;;;;1.20;0.82;;;25.10;50.70;;;;;;5108016;28;20031;-76
2022/09/02 08:53:18;;;;;;;1.10;0.70;;;24.80;50.30;;;;;;5107137;28;20032;-77
2022/09/02 08:55:54;;;;;;;1.52;0.50;;;24.70;50.90;;;;;;5107932;28;20019;-77
2022/09/02 08:58:24;;;;;;;1.58;0.63;;;24.60;49.80;;;;;;5105851;28;20044;-76
2022/09/02 09:01:26;;;;;;;1.20;0.57;;;24.10;51.00;;;;;;5104306;28;20044;-75
2022/09/02 09:04:16;;;;;;;2.63;0.55;;;24.30;50.50;;;;;;5101948;27;20050;-76
2022/09/02 09:07:20;;;;;;;1.25;0.70;;;24.20;50.30;;;;;;5123264;27;20039;-75
2022/09/02 09:10:01;;;;;;;2.05;0.80;;;24.10;52.20;;;;;;5120640;27;20494;-75
2022/09/02 09:12:51;;;;;;;1.52;0.80;;;24.20;52.90;;;;;;5125343;27;20030;-74
2022/09/02 09:15:39;;;;;;;2.20;1.00;;;24.50;50.90;;;;;;5128344;27;20027;-75
2022/09/02 09:18:24;;;;;;;1.08;0.70;;;24.10;49.90;;;;;;5125526;27;20034;-74
2022/09/02 09:20:51;;;;;;;1.08;0.60;;;24.20;49.80;;;;;;5121339;27;20035;-75
2022/09/02 09:23:32;;;;;;;1.40;0.80;;;24.20;48.30;;;;;;5120773;27;20039;-74
2022/09/02 09:26:11;;;;;;;1.45;0.65;;;24.20;49.20;;;;;;5127794;27;20030;-74
2022/09/02 09:28:46;;;;;;;2.75;0.70;;;24.80;50.10;;;;;;5123211;27;20047;-77
2022/09/02 09:31:17;;;;;;;1.52;0.60;;;24.50;46.00;;;;;;5126692;27;20031;-74
2022/09/02 09:34:01;;;;;;;;;;;24.20;47.40;;;;;;5123610;27;20028;-74
2022/09/02 09:36:42;;;;;;;0.88;0.60;;;24.80;47.40;;;;;;5125991;27;19915;-73
2022/09/02 09:39:28;;;;;;;1.65;0.80;;;25.80;46.20;;;;;;5124691;27;20038;-80
2022/09/02 09:42:10;;;;;;;1.52;0.50;;;26.10;45.90;;;;;;5107000;27;20031;-81
2022/09/02 09:44:45;;;;;;;2.50;0.80;;;25.50;46.30;;;;;;5124269;27;20038;-74
2022/09/02 09:47:21;;;;;;;1.55;0.60;;;25.70;45.90;;;;;;5123992;27;20035;-75
2022/09/02 09:49:50;;;;;;;1.35;0.47;;;26.00;45.10;;;;;;5122899;27;20027;-75
2022/09/02 09:52:28;;;;;;;1.73;0.63;;;26.10;46.20;;;;;;5120749;27;20027;-76
2022/09/02 09:55:16;;;;;;;2.08;0.57;;;26.20;44.90;;;;;;5104769;27;20054;-74
2022/09/02 09:57:46;;;;;;;3.42;0.63;;;25.40;44.40;;;;;;5128791;27;20039;-74
2022/09/02 10:00:28;;;;;;;2.22;0.70;;;24.30;45.50;;;;;;5132297;27;20031;-75
2022/09/02 10:02:57;;;;;;;1.15;0.82;;;23.90;45.10;;;;;;5132318;27;20637;-75
2022/09/02 10:05:23;;;;;;;1.52;0.70;;;23.90;45.70;;;;;;5111316;27;20047;-74
2022/09/02 10:07:54;;;;;;;1.45;0.77;;;24.30;45.80;;;;;;5123941;27;20043;-74
2022/09/02 10:10:23;;;;;;;1.67;0.70;;;24.20;45.40;;;;;;5131855;27;20367;-74
2022/09/02 10:12:53;;;;;;;0.75;0.57;;;23.60;44.30;;;;;;5132658;27;20035;-75
2022/09/02 10:15:29;;;;;;;1.90;0.50;;;23.50;45.00;;;;;;5133091;27;20451;-73
2022/09/02 10:18:33;;;;;;;1.50;1.02;;;23.60;45.70;;;;;;5131716;27;20043;-73
2022/09/02 10:21:18;;;;;;;2.65;0.70;;;23.70;46.30;;;;;;5126476;27;20031;-74
2022/09/02 10:23:44;;;;;;;2.80;0.60;;;23.90;46.40;;;;;;5131923;27;20036;-72
2022/09/02 10:26:31;;;;;;;0.75;0.40;;;24.00;46.10;;;;;;5132842;27;20027;-73
2022/09/02 10:29:10;;;;;;;2.42;0.68;;;24.10;46.70;;;;;;5131606;27;20035;-74
2022/09/02 10:31:53;;;;;;;1.25;0.65;;;24.40;46.50;;;;;;5113532;27;20055;-78
2022/09/02 10:34:38;;;;;;;1.25;0.40;;;24.20;45.20;;;;;;5128365;27;20051;-74
2022/09/02 10:37:19;;;;;;;1.50;0.63;;;24.10;44.80;;;;;;5124378;27;20034;-74
2022/09/02 10:39:57;;;;;;;1.98;0.47;;;24.00;44.70;;;;;;5104988;27;20039;-73
2022/09/02 10:42:49;;;;;;;2.63;0.57;;;23.70;44.40;;;;;;5132425;27;20035;-74
2022/09/02 10:45:27;;;;;;;0.98;0.50;;;23.70;45.90;;;;;;5125559;27;20490;-74
2022/09/02 10:48:18;;;;;;;1.02;0.70;;;23.60;45.90;;;;;;5132057;27;20823;-74
2022/09/02 10:51:03;;;;;;;2.28;0.70;;;23.40;45.10;;;;;;5130423;27;20035;-75
2022/09/02 10:53:41;;;;;;;1.23;0.45;;;23.50;45.20;;;;;;5132279;27;20039;-74
2022/09/02 10:56:14;;;;;;;1.13;0.52;;;23.60;45.30;;;;;;5124273;27;20023;-74
2022/09/02 10:58:48;;;;;;;1.60;0.60;;;23.90;44.10;;;;;;5132032;27;20038;-74
2022/09/02 11:01:28;;;;;;;0.80;0.40;;;23.90;44.20;;;;;;5131775;27;20384;-74
2022/09/02 11:04:38;;;;;;;1.35;0.40;;;23.90;44.00;;;;;;5131055;27;20628;-75
2022/09/02 11:07:12;;;;;;;0.98;0.50;;;23.90;44.00;;;;;;5028795;28;20145;-75
2022/09/02 11:09:45;;;;;;;2.10;0.50;;;23.60;44.30;;;;;;5108596;28;20047;-78
2022/09/02 11:12:21;;;;;;;1.42;0.65;;;24.00;44.00;;;;;;5128000;28;20133;-74
2022/09/02 11:14:55;;;;;;;1.77;0.60;;;23.80;44.10;;;;;;5132135;28;20023;-75
2022/09/02 11:17:37;;;;;;;3.08;0.93;;;23.70;43.70;;;;;;5114208;28;20054;-73
2022/09/02 11:20:08;;;;;;;0.82;0.40;;;23.60;44.20;;;;;;5132622;27;20042;-74
2022/09/02 11:23:12;;;;;;;0.55;0.40;;;24.00;44.00;;;;;;5136523;27;20027;-74
2022/09/02 11:25:46;;;;;;;0.85;0.52;;;24.10;44.00;;;;;;5135622;27;20034;-80
2022/09/02 11:28:32;;;;;;;2.03;0.57;;;24.20;42.40;;;;;;5136823;27;20035;-73
2022/09/02 11:31:18;;;;;;;1.50;0.63;;;23.50;43.20;;;;;;5134143;27;20551;-75
2022/09/02 11:34:00;;;;;;;0.70;0.47;;;23.80;43.80;;;;;;5135537;27;20380;-76
2022/09/02 11:36:27;;;;;;;2.05;0.60;;;23.90;43.50;;;;;;5117940;27;20384;-75
2022/09/02 11:39:01;;;;;;;2.00;0.70;;;23.70;42.60;;;;;;5132861;27;20023;-75
2022/09/02 11:41:36;;;;;;;1.38;0.50;;;23.60;43.50;;;;;;5134675;27;20046;-75
2022/09/02 11:44:33;;;;;;;2.13;0.60;;;24.00;42.90;;;;;;5135578;27;20039;-75
2022/09/02 11:47:18;;;;;;;1.38;0.50;;;24.10;43.40;;;;;;5135555;27;20038;-74
2022/09/02 11:50:03;;;;;;;1.33;0.60;;;24.10;43.70;;;;;;5134342;27;20106;-74
2022/09/02 11:53:07;;;;;;;3.65;0.57;;;24.60;43.70;;;;;;5136195;27;20031;-74
2022/09/02 11:55:36;;;;;;;2.67;0.55;;;24.60;43.80;;;;;;5125032;27;20024;-75
2022/09/02 11:58:03;;;;;;;1.08;0.55;;;24.90;43.70;;;;;;5125373;27;20028;-75
2022/09/02 12:00:49;;;;;;;1.25;0.45;;;25.00;43.10;;;;;;5129562;27;20050;-75
2022/09/02 12:03:28;;;;;;;0.63;0.50;;;25.00;42.80;;;;;;5135463;27;20049;-73
2022/09/02 12:06:12;;;;;;;1.27;0.50;;;24.70;42.90;;;;;;5136107;27;20042;-74
2022/09/02 12:08:42;;;;;;;2.15;0.65;;;24.60;43.10;;;;;;5133796;27;20039;-80
2022/09/02 12:11:28;;;;;;;0.95;0.50;;;24.80;43.00;;;;;;5134050;27;20031;-74
2022/09/02 12:13:55;;;;;;;2.67;0.70;;;24.80;42.80;;;;;;5134151;27;20368;-74
2022/09/02 12:16:27;;;;;;;1.35;0.57;;;24.40;43.20;;;;;;5134631;27;20043;-74
2022/09/02 12:18:53;;;;;;;1.13;0.43;;;24.80;42.70;;;;;;5134065;27;20046;-77
2022/09/02 12:21:21;;;;;;;2.38;0.40;;;24.60;42.90;;;;;;5134558;27;20118;-74
2022/09/02 12:23:53;;;;;;;0.68;0.40;;;24.50;42.10;;;;;;5135269;27;20031;-74
2022/09/02 12:26:24;;;;;;;2.35;0.50;;;24.70;42.50;;;;;;5136896;27;20034;-75
2022/09/02 12:28:52;;;;;;;1.25;0.70;;;24.90;42.10;;;;;;5135271;27;20046;-73
2022/09/02 12:31:41;;;;;;;0.82;0.50;;;25.10;42.30;;;;;;5109472;27;20039;-74
2022/09/02 12:34:28;;;;;;;0.68;0.57;;;25.20;41.80;;;;;;5114274;27;20042;-74
2022/09/02 12:37:02;;;;;;;1.02;0.60;;;25.00;42.10;;;;;;5135418;27;20387;-74
2022/09/02 12:39:29;;;;;;;1.38;0.68;;;24.90;42.30;;;;;;5134778;27;20027;-74
2022/09/02 12:42:10;;;;;;;0.93;0.50;;;24.50;42.70;;;;;;5135344;27;20027;-74
2022/09/02 12:44:59;;;;;;;1.10;0.40;;;25.00;42.80;;;;;;5117189;27;20476;-75
2022/09/02 12:47:33;;;;;;;1.08;0.50;;;25.50;42.20;;;;;;5136401;27;20138;-74
2022/09/02 12:50:04;;;;;;;5.32;0.73;;;25.30;41.80;;;;;;5133994;27;20042;-75
2022/09/02 12:52:33;;;;;;;1.10;0.43;;;25.10;42.00;;;;;;5136090;27;20039;-74
2022/09/02 12:55:09;;;;;;;0.95;0.40;;;24.90;41.70;;;;;;5135481;27;20042;-73
2022/09/02 12:57:41;;;;;;;1.00;0.40;;;24.80;41.40;;;;;;5135836;27;20039;-74
2022/09/02 13:00:18;;;;;;;1.17;0.50;;;24.60;41.80;;;;;;5134233;27;20460;-73
2022/09/02 13:03:20;;;;;;;0.93;0.40;;;24.80;41.90;;;;;;5134277;27;20043;-74
2022/09/02 13:05:59;;;;;;;0.95;0.45;;;24.90;41.70;;;;;;5134606;27;20468;-74
2022/09/02 13:08:30;;;;;;;1.60;0.50;;;24.70;41.70;;;;;;5134896;27;20035;-73
2022/09/02 13:11:42;;;;;;;1.77;0.63;;;25.10;41.80;;;;;;5132770;27;20027;-73
2022/09/02 13:14:08;;;;;;;1.77;0.50;;;25.20;41.60;;;;;;5104354;27;20039;-74
2022/09/02 13:17:09;;;;;;;0.73;0.40;;;25.20;42.20;;;;;;5135070;27;20035;-75
2022/09/02 13:19:38;;;;;;;1.20;0.55;;;25.70;42.10;;;;;;5080941;27;20043;-73
2022/09/02 13:22:17;;;;;;;2.08;0.47;;;25.40;41.10;;;;;;5133704;27;20038;-75